Time;durP1;ratioP1;P1;durP2;ratioP2;P2;SDS_P1;SDS_P2;PMS_P1;PMS_P2;Temp;Humidity;BMP_temperature;BMP_pressure;BME280_temperature;BME280_humidity;BME280_pressure;Samples;Min_cycle;Max_cycle;Signal;HPM_P1;HPM_P2
2022/05/08 00:01:02;;;;;;;19.90;8.37;;;;;;;;;;5033438;28;20610;-70
2022/05/08 00:03:32;;;;;;;17.23;8.10;;;;;;;;;;5033771;28;20230;-71
2022/05/08 00:06:06;;;;;;;14.83;6.93;;;;;;;;;;5031680;28;20210;-71
2022/05/08 00:08:35;;;;;;;18.97;7.93;;;;;;;;;;5034153;28;20282;-71
2022/05/08 00:11:03;;;;;;;15.50;7.03;;;;;;;;;;5032338;28;20203;-71
2022/05/08 00:13:32;;;;;;;15.43;6.77;;;;;;;;;;5032309;28;20672;-71
2022/05/08 00:16:00;;;;;;;14.97;6.07;;;;;;;;;;5030674;28;20212;-71
2022/05/08 00:18:29;;;;;;;17.10;6.47;;;;;;;;;;5031989;28;20230;-71
2022/05/08 00:20:58;;;;;;;21.83;6.40;;;;;;;;;;5031322;28;20214;-71
2022/05/08 00:23:27;;;;;;;19.40;7.00;;;;;;;;;;5031201;28;20270;-71
2022/05/08 00:25:56;;;;;;;18.37;7.03;;;;;;;;;;5031121;28;20266;-71
2022/05/08 00:28:25;;;;;;;23.07;6.50;;;;;;;;;;5016755;28;20235;-71
2022/05/08 00:30:53;;;;;;;14.73;6.37;;;;;;;;;;5020945;28;20223;-71
2022/05/08 00:33:21;;;;;;;14.73;6.73;;;;;;;;;;5015282;28;20200;-71
2022/05/08 00:35:50;;;;;;;15.83;6.70;;;;;;;;;;5033729;28;20214;-70
2022/05/08 00:38:19;;;;;;;16.37;6.20;;;;;;;;;;5032902;28;20765;-70
2022/05/08 00:40:48;;;;;;;19.13;7.57;;;;;;;;;;5033471;28;20211;-72
2022/05/08 00:43:32;;;;;;;19.90;7.13;;;;;;;;;;5028296;28;20624;-71
2022/05/08 00:46:04;;;;;;;18.07;7.57;;;;;;;;;;5014018;28;20205;-71
2022/05/08 00:48:33;;;;;;;16.70;7.63;;;;;;;;;;5029327;28;20224;-71
2022/05/08 00:51:02;;;;;;;19.07;7.80;;;;;;;;;;5033644;28;20203;-72
2022/05/08 00:53:35;;;;;;;16.47;7.60;;;;;;;;;;5031847;28;20195;-71
2022/05/08 00:56:05;;;;;;;19.23;7.43;;;;;;;;;;5032944;28;20674;-71
2022/05/08 00:58:35;;;;;;;16.40;7.47;;;;;;;;;;5032956;28;20235;-71
2022/05/08 01:01:03;;;;;;;21.40;7.00;;;;;;;;;;5033103;28;20209;-71
2022/05/08 01:03:32;;;;;;;13.70;6.57;;;;;;;;;;5032429;28;20238;-71
2022/05/08 01:06:05;;;;;;;15.00;6.10;;;;;;;;;;5032589;28;20204;-71
2022/05/08 01:08:35;;;;;;;14.00;6.10;;;;;;;;;;5033211;28;20277;-71
2022/05/08 01:11:05;;;;;;;16.77;6.23;;;;;;;;;;5032458;28;20210;-71
2022/05/08 01:13:33;;;;;;;16.23;5.40;;;;;;;;;;5032307;28;20199;-72
2022/05/08 01:16:02;;;;;;;13.43;5.27;;;;;;;;;;5024154;28;20205;-71
2022/05/08 01:18:30;;;;;;;19.83;6.53;;;;;;;;;;5029240;28;20230;-72
2022/05/08 01:20:59;;;;;;;20.00;6.27;;;;;;;;;;5033153;28;20204;-71
2022/05/08 01:23:29;;;;;;;16.80;5.47;;;;;;;;;;5031828;28;20224;-70
2022/05/08 01:25:58;;;;;;;16.87;6.43;;;;;;;;;;5032705;28;20258;-71
2022/05/08 01:28:29;;;;;;;19.93;5.57;;;;;;;;;;5036389;28;20744;-71
2022/05/08 01:30:57;;;;;;;19.00;6.20;;;;;;;;;;5035982;28;20218;-70
2022/05/08 01:33:26;;;;;;;20.77;5.73;;;;;;;;;;5035585;28;20250;-72
2022/05/08 01:35:56;;;;;;;18.77;6.23;;;;;;;;;;5037022;28;20208;-71
2022/05/08 01:38:25;;;;;;;19.60;6.27;;;;;;;;;;5020678;28;20309;-70
2022/05/08 01:40:57;;;;;;;19.50;6.00;;;;;;;;;;5020050;28;20207;-71
2022/05/08 01:43:31;;;;;;;13.00;5.40;;;;;;;;;;5035239;28;20234;-70
2022/05/08 01:45:59;;;;;;;18.30;5.47;;;;;;;;;;5034969;28;20732;-70
2022/05/08 01:48:27;;;;;;;17.57;5.73;;;;;;;;;;5032549;28;20241;-71
2022/05/08 01:50:56;;;;;;;19.97;5.70;;;;;;;;;;5036717;28;20254;-71
2022/05/08 01:53:25;;;;;;;13.80;5.53;;;;;;;;;;5035474;28;20205;-71
2022/05/08 01:55:56;;;;;;;14.27;5.73;;;;;;;;;;5036441;28;20258;-71
2022/05/08 01:58:25;;;;;;;14.43;5.00;;;;;;;;;;5035562;28;20231;-70
2022/05/08 02:00:53;;;;;;;14.60;4.77;;;;;;;;;;5035562;28;20618;-70
2022/05/08 02:03:23;;;;;;;16.77;5.33;;;;;;;;;;5035185;28;20233;-70
2022/05/08 02:05:52;;;;;;;11.80;4.90;;;;;;;;;;5036050;28;20277;-71
2022/05/08 02:08:21;;;;;;;15.03;5.90;;;;;;;;;;5035681;28;20321;-70
2022/05/08 02:10:49;;;;;;;18.33;5.93;;;;;;;;;;5036349;28;20262;-71
2022/05/08 02:13:19;;;;;;;16.97;5.70;;;;;;;;;;5035424;28;20234;-71
2022/05/08 02:15:47;;;;;;;20.47;6.23;;;;;;;;;;5035686;28;20208;-71
2022/05/08 02:18:16;;;;;;;12.37;5.27;;;;;;;;;;5034599;28;20227;-71
2022/05/08 02:20:44;;;;;;;14.40;5.67;;;;;;;;;;5036254;28;20208;-71
2022/05/08 02:23:13;;;;;;;17.10;5.50;;;;;;;;;;5035506;28;20253;-70
2022/05/08 02:25:42;;;;;;;11.73;4.73;;;;;;;;;;5035785;28;20216;-70
2022/05/08 02:28:10;;;;;;;12.87;4.70;;;;;;;;;;5034248;28;20228;-71
2022/05/08 02:30:40;;;;;;;10.57;5.40;;;;;;;;;;5035285;28;20211;-71
2022/05/08 02:33:08;;;;;;;18.17;5.90;;;;;;;;;;5034179;28;20242;-71
2022/05/08 02:35:37;;;;;;;13.43;5.40;;;;;;;;;;5035987;28;20196;-71
2022/05/08 02:38:05;;;;;;;17.97;5.97;;;;;;;;;;5034816;28;20219;-70
2022/05/08 02:40:34;;;;;;;14.43;4.87;;;;;;;;;;5035082;28;20207;-71
2022/05/08 02:43:02;;;;;;;13.53;5.40;;;;;;;;;;5034382;28;20663;-71
2022/05/08 02:45:31;;;;;;;13.63;5.43;;;;;;;;;;5035084;28;20224;-72
2022/05/08 02:48:00;;;;;;;12.83;5.30;;;;;;;;;;5034592;28;20289;-72
2022/05/08 02:50:29;;;;;;;14.80;5.47;;;;;;;;;;5035804;28;20196;-71
2022/05/08 02:52:57;;;;;;;13.10;5.37;;;;;;;;;;5034653;28;20208;-70
2022/05/08 03:00:58;;;;;;;16.57;5.53;;;;;;;;;;5035558;28;20242;-71
2022/05/08 03:03:27;;;;;;;9.87;5.43;;;;;;;;;;5034709;28;20262;-72
2022/05/08 03:05:56;;;;;;;20.70;5.77;;;;;;;;;;5035317;28;20196;-71
2022/05/08 03:08:24;;;;;;;11.47;5.10;;;;;;;;;;5032417;28;20686;-70
2022/05/08 03:13:39;;;;;;;11.67;5.00;;;;;;;;;;5033227;28;20199;-71
2022/05/08 03:16:08;;;;;;;18.57;5.60;;;;;;;;;;5034460;28;20211;-71
2022/05/08 03:18:40;;;;;;;15.83;5.23;;;;;;;;;;5034127;28;20224;-70
2022/05/08 03:21:08;;;;;;;14.47;5.10;;;;;;;;;;5032898;28;20200;-70
2022/05/08 03:23:37;;;;;;;16.00;5.47;;;;;;;;;;5034263;28;20208;-71
2022/05/08 03:26:06;;;;;;;14.40;5.33;;;;;;;;;;5033929;28;20210;-70
2022/05/08 03:28:34;;;;;;;12.60;5.27;;;;;;;;;;5027174;28;20227;-70
2022/05/08 03:31:03;;;;;;;11.03;4.83;;;;;;;;;;5033939;28;20258;-71
2022/05/08 03:33:32;;;;;;;15.77;5.23;;;;;;;;;;5034429;28;20236;-70
2022/05/08 03:36:02;;;;;;;17.77;6.10;;;;;;;;;;5032918;28;20588;-70
2022/05/08 03:38:30;;;;;;;14.00;5.80;;;;;;;;;;5034123;28;20286;-71
2022/05/08 03:40:59;;;;;;;18.93;6.67;;;;;;;;;;5034105;28;20232;-71
2022/05/08 03:43:27;;;;;;;16.70;6.20;;;;;;;;;;5034967;28;20254;-70
2022/05/08 03:45:57;;;;;;;15.90;5.97;;;;;;;;;;5034030;28;20277;-71
2022/05/08 03:48:25;;;;;;;14.57;6.43;;;;;;;;;;5033597;28;20225;-70
2022/05/08 03:50:54;;;;;;;18.27;7.00;;;;;;;;;;5034039;28;20200;-70
2022/05/08 03:53:23;;;;;;;17.97;7.10;;;;;;;;;;5033154;28;20281;-70
2022/05/08 03:55:52;;;;;;;18.10;5.97;;;;;;;;;;5033950;28;20249;-70
2022/05/08 03:58:20;;;;;;;16.43;6.53;;;;;;;;;;5034235;28;20224;-70
2022/05/08 04:00:49;;;;;;;14.87;5.97;;;;;;;;;;5034209;28;20269;-71
2022/05/08 04:03:17;;;;;;;19.07;6.70;;;;;;;;;;5033344;28;20210;-70
2022/05/08 04:05:46;;;;;;;21.87;7.20;;;;;;;;;;5032902;28;20224;-71
2022/05/08 04:08:14;;;;;;;22.33;6.83;;;;;;;;;;5031328;28;21815;-71
2022/05/08 04:10:44;;;;;;;16.40;6.50;;;;;;;;;;5034113;28;20262;-71
2022/05/08 04:13:12;;;;;;;18.27;6.63;;;;;;;;;;5033098;28;20663;-71
2022/05/08 04:18:26;;;;;;;16.70;8.07;;;;;;;;;;5033027;28;20307;-71
2022/05/08 04:20:55;;;;;;;22.23;8.80;;;;;;;;;;5014074;28;20200;-71
2022/05/08 04:26:10;;;;;;;17.20;7.20;;;;;;;;;;5033323;28;20683;-71
2022/05/08 04:28:39;;;;;;;18.93;7.13;;;;;;;;;;5016734;28;20228;-71
2022/05/08 04:31:07;;;;;;;18.47;6.83;;;;;;;;;;5023624;28;20211;-71
2022/05/08 04:33:35;;;;;;;17.13;6.97;;;;;;;;;;5033745;28;20262;-71
2022/05/08 04:36:04;;;;;;;18.47;7.40;;;;;;;;;;5033066;28;20717;-71
2022/05/08 04:38:32;;;;;;;19.83;6.80;;;;;;;;;;5032246;28;20232;-71
2022/05/08 04:41:01;;;;;;;15.93;6.67;;;;;;;;;;5032631;28;20215;-71
2022/05/08 04:43:30;;;;;;;17.63;6.87;;;;;;;;;;5031775;28;20246;-71
2022/05/08 04:45:59;;;;;;;17.90;7.03;;;;;;;;;;5033002;28;20270;-71
2022/05/08 04:48:27;;;;;;;15.20;7.10;;;;;;;;;;5018719;28;20229;-71
2022/05/08 04:50:56;;;;;;;17.47;7.20;;;;;;;;;;5019535;28;20257;-72
2022/05/08 04:53:24;;;;;;;15.67;7.30;;;;;;;;;;5033284;28;20204;-71
2022/05/08 04:55:52;;;;;;;15.83;7.30;;;;;;;;;;5032542;28;20908;-72
2022/05/08 04:58:21;;;;;;;16.53;7.07;;;;;;;;;;5032498;28;20224;-71
2022/05/08 05:00:51;;;;;;;18.80;7.33;;;;;;;;;;5032935;28;20204;-72
2022/05/08 05:03:19;;;;;;;18.67;7.70;;;;;;;;;;5033278;28;20256;-71
2022/05/08 05:05:48;;;;;;;19.87;7.40;;;;;;;;;;5032487;28;20223;-72
2022/05/08 05:08:18;;;;;;;17.50;7.77;;;;;;;;;;5032496;28;20776;-71
2022/05/08 05:10:46;;;;;;;16.27;6.73;;;;;;;;;;5031842;28;20725;-71
2022/05/08 05:13:15;;;;;;;20.13;7.87;;;;;;;;;;5032243;28;20204;-71
2022/05/08 05:15:43;;;;;;;19.10;7.40;;;;;;;;;;5032613;28;20265;-71
2022/05/08 05:18:13;;;;;;;20.87;8.40;;;;;;;;;;5031687;28;20717;-72
2022/05/08 05:20:42;;;;;;;21.90;8.20;;;;;;;;;;5032100;28;20279;-71
2022/05/08 05:23:11;;;;;;;17.40;7.20;;;;;;;;;;5031767;28;20203;-72
2022/05/08 05:25:39;;;;;;;17.43;7.40;;;;;;;;;;5013257;28;20221;-71
2022/05/08 05:28:08;;;;;;;21.47;8.00;;;;;;;;;;5032389;28;20223;-72
2022/05/08 05:30:36;;;;;;;19.37;7.00;;;;;;;;;;5032818;28;20215;-72
2022/05/08 05:33:05;;;;;;;18.23;7.00;;;;;;;;;;5032089;28;20208;-71
2022/05/08 05:35:38;;;;;;;18.13;6.73;;;;;;;;;;5032227;28;20647;-72
2022/05/08 05:38:07;;;;;;;20.87;6.83;;;;;;;;;;5031456;28;20282;-71
2022/05/08 05:40:35;;;;;;;16.90;6.13;;;;;;;;;;5032670;28;20269;-72
2022/05/08 05:43:04;;;;;;;20.97;6.07;;;;;;;;;;5033109;28;20204;-71
2022/05/08 05:45:32;;;;;;;17.40;5.50;;;;;;;;;;5032313;28;20228;-71
2022/05/08 05:48:00;;;;;;;17.40;5.17;;;;;;;;;;5022380;28;20220;-70
2022/05/08 05:50:29;;;;;;;16.13;5.03;;;;;;;;;;5025170;28;20230;-71
2022/05/08 05:52:59;;;;;;;14.30;5.30;;;;;;;;;;5017820;28;20593;-71
2022/05/08 05:55:27;;;;;;;12.33;5.43;;;;;;;;;;5031745;28;20208;-70
2022/05/08 05:57:55;;;;;;;15.73;5.33;;;;;;;;;;5032081;28;20252;-71
2022/05/08 06:00:24;;;;;;;14.50;5.27;;;;;;;;;;5032727;28;20286;-71
2022/05/08 06:02:52;;;;;;;15.30;5.27;;;;;;;;;;5031263;28;20587;-71
2022/05/08 06:05:22;;;;;;;8.80;4.53;;;;;;;;;;5032846;28;20604;-71
2022/05/08 06:07:51;;;;;;;12.47;5.00;;;;;;;;;;5031604;28;20277;-71
2022/05/08 06:10:20;;;;;;;14.27;4.77;;;;;;;;;;5031844;28;20200;-71
2022/05/08 06:12:49;;;;;;;14.20;4.30;;;;;;;;;;5032593;28;20208;-71
2022/05/08 06:15:17;;;;;;;12.47;5.03;;;;;;;;;;5035757;28;20729;-71
2022/05/08 06:17:45;;;;;;;14.77;4.90;;;;;;;;;;5034208;28;20262;-71
2022/05/08 06:20:14;;;;;;;11.83;4.60;;;;;;;;;;5035266;28;20214;-71
2022/05/08 06:22:43;;;;;;;14.80;4.27;;;;;;;;;;5036191;28;20210;-71
2022/05/08 06:25:12;;;;;;;15.60;4.63;;;;;;;;;;5035784;28;20210;-70
2022/05/08 06:27:42;;;;;;;15.13;4.67;;;;;;;;;;5034348;28;20563;-71
2022/05/08 06:30:11;;;;;;;12.60;4.63;;;;;;;;;;5034512;28;20662;-72
2022/05/08 06:32:39;;;;;;;14.80;3.73;;;;;;;;;;5031831;28;20203;-71
2022/05/08 06:35:28;;;;;;;10.83;3.70;;;;;;;;;;5032655;28;20239;-71
2022/05/08 06:37:56;;;;;;;9.87;3.73;;;;;;;;;;5034889;28;20278;-71
2022/05/08 06:40:25;;;;;;;7.80;3.67;;;;;;;;;;5035307;28;20211;-70
2022/05/08 06:42:55;;;;;;;6.93;3.70;;;;;;;;;;5033929;28;20204;-71
2022/05/08 06:45:24;;;;;;;13.33;3.60;;;;;;;;;;5031724;28;20314;-70
2022/05/08 06:47:53;;;;;;;9.20;3.30;;;;;;;;;;5035154;28;20224;-72
2022/05/08 06:50:23;;;;;;;13.23;3.33;;;;;;;;;;5035424;28;20554;-72
2022/05/08 06:52:51;;;;;;;13.33;3.50;;;;;;;;;;5035417;28;20208;-71
2022/05/08 06:55:20;;;;;;;11.47;3.40;;;;;;;;;;5034533;28;20701;-71
2022/05/08 06:57:48;;;;;;;9.77;3.80;;;;;;;;;;5033150;28;20273;-71
2022/05/08 07:03:05;;;;;;;10.33;3.30;;;;;;;;;;5034406;28;20212;-71
2022/05/08 07:05:36;;;;;;;7.43;2.73;;;;;;;;;;5034447;28;20212;-72
2022/05/08 07:08:04;;;;;;;11.70;3.20;;;;;;;;;;5033550;28;20215;-71
2022/05/08 07:10:33;;;;;;;9.57;3.30;;;;;;;;;;5034419;28;20261;-71
2022/05/08 07:13:01;;;;;;;11.77;2.93;;;;;;;;;;5033316;28;20204;-72
2022/05/08 07:15:31;;;;;;;11.70;3.67;;;;;;;;;;5034483;28;20200;-71
2022/05/08 07:18:19;;;;;;;10.20;3.43;;;;;;;;;;5033025;28;20246;-71
2022/05/08 07:20:48;;;;;;;7.53;3.07;;;;;;;;;;4684809;28;9999655;-72
2022/05/08 07:23:17;;;;;;;8.13;3.07;;;;;;;;;;5032156;28;20215;-71
2022/05/08 07:25:45;;;;;;;9.00;3.00;;;;;;;;;;5032101;28;20234;-72
2022/05/08 07:28:14;;;;;;;11.20;3.43;;;;;;;;;;5035022;28;20286;-72
2022/05/08 07:30:43;;;;;;;10.10;3.30;;;;;;;;;;5031302;28;20216;-71
2022/05/08 07:33:16;;;;;;;10.70;2.90;;;;;;;;;;5025262;28;20203;-71
2022/05/08 07:38:31;;;;;;;11.73;3.17;;;;;;;;;;5033215;28;20226;-71
2022/05/08 07:41:01;;;;;;;9.43;3.00;;;;;;;;;;5034372;28;20243;-71
2022/05/08 07:43:30;;;;;;;7.83;2.83;;;;;;;;;;5032280;28;20203;-71
2022/05/08 07:46:00;;;;;;;11.53;3.00;;;;;;;;;;5034160;28;20200;-71
2022/05/08 07:48:29;;;;;;;13.27;3.17;;;;;;;;;;5033971;28;20230;-71
2022/05/08 07:50:59;;;;;;;9.07;2.63;;;;;;;;;;5034427;28;20196;-71
2022/05/08 07:53:29;;;;;;;8.20;2.63;;;;;;;;;;5031910;28;20204;-71
2022/05/08 07:55:57;;;;;;;8.50;2.50;;;;;;;;;;5033271;28;20220;-72
2022/05/08 07:58:28;;;;;;;8.97;2.67;;;;;;;;;;5033973;28;20223;-71
2022/05/08 08:01:04;;;;;;;8.43;2.27;;;;;;;;;;5034668;28;20590;-72
2022/05/08 08:03:34;;;;;;;9.23;2.90;;;;;;;;;;5033144;28;20283;-74
2022/05/08 08:06:04;;;;;;;17.10;3.27;;;;;;;;;;5029995;28;20675;-72
2022/05/08 08:08:38;;;;;;;9.73;3.13;;;;;;;;;;5032879;28;20219;-72
2022/05/08 08:11:07;;;;;;;8.47;3.00;;;;;;;;;;5034127;28;20265;-72
2022/05/08 08:13:36;;;;;;;8.93;2.80;;;;;;;;;;5029170;28;20208;-72
2022/05/08 08:16:07;;;;;;;8.97;2.60;;;;;;;;;;5031811;28;20754;-70
2022/05/08 08:18:35;;;;;;;11.37;3.07;;;;;;;;;;5028962;28;20249;-71
2022/05/08 08:21:09;;;;;;;8.30;2.73;;;;;;;;;;5034170;28;20207;-72
2022/05/08 08:23:38;;;;;;;7.27;2.90;;;;;;;;;;5033749;28;20254;-71
2022/05/08 08:26:06;;;;;;;10.73;2.97;;;;;;;;;;5033561;28;20216;-72
2022/05/08 08:28:35;;;;;;;7.57;2.93;;;;;;;;;;5033282;28;20262;-73
2022/05/08 08:31:08;;;;;;;9.03;2.90;;;;;;;;;;5022830;28;20651;-72
2022/05/08 08:33:40;;;;;;;7.80;2.80;;;;;;;;;;5025625;28;20221;-71
2022/05/08 08:36:09;;;;;;;7.27;2.77;;;;;;;;;;5033606;28;20231;-72
2022/05/08 08:38:39;;;;;;;5.67;2.60;;;;;;;;;;5032192;28;20219;-72
2022/05/08 08:41:08;;;;;;;8.70;3.00;;;;;;;;;;5033533;28;20651;-71
2022/05/08 08:49:10;;;;;;;8.47;3.10;;;;;;;;;;5028457;28;20204;-71
2022/05/08 08:51:39;;;;;;;8.83;2.70;;;;;;;;;;5031548;28;20250;-72
2022/05/08 08:54:08;;;;;;;7.27;3.10;;;;;;;;;;5032493;28;20212;-72
2022/05/08 08:56:37;;;;;;;8.10;2.97;;;;;;;;;;5029629;28;20205;-72
2022/05/08 08:59:06;;;;;;;7.57;2.83;;;;;;;;;;5032007;28;20218;-71
2022/05/08 09:01:41;;;;;;;8.73;2.83;;;;;;;;;;5030842;28;20206;-70
2022/05/08 09:04:12;;;;;;;9.93;2.90;;;;;;;;;;5031393;28;20203;-73
2022/05/08 09:06:40;;;;;;;7.57;2.90;;;;;;;;;;5029620;28;20211;-71
2022/05/08 09:09:25;;;;;;;7.77;2.70;;;;;;;;;;5032254;28;20200;-72
2022/05/08 09:11:54;;;;;;;8.40;2.72;;;;;;;;;;5031135;28;20210;-72
2022/05/08 09:14:33;;;;;;;6.50;2.60;;;;;;;;;;5030519;28;20552;-71
2022/05/08 09:17:02;;;;;;;9.07;2.90;;;;;;;;;;5025380;28;20219;-72
2022/05/08 09:19:34;;;;;;;12.25;2.97;;;;;;;;;;5031562;28;20660;-72
2022/05/08 09:22:03;;;;;;;8.45;2.70;;;;;;;;;;5025155;28;20200;-73
2022/05/08 09:24:31;;;;;;;8.73;2.60;;;;;;;;;;5027770;28;20204;-72
2022/05/08 09:27:16;;;;;;;8.98;2.50;;;;;;;;;;5030526;28;20588;-71
2022/05/08 09:29:44;;;;;;;9.05;2.60;;;;;;;;;;5031456;28;20204;-71
2022/05/08 09:32:38;;;;;;;9.98;3.05;;;;;;;;;;5023383;28;20205;-74
2022/05/08 09:35:10;;;;;;;6.95;2.60;;;;;;;;;;5029286;28;20685;-71
2022/05/08 09:37:54;;;;;;;8.20;2.60;;;;;;;;;;5029078;28;20231;-72
2022/05/08 09:40:23;;;;;;;10.88;2.80;;;;;;;;;;5030738;28;20222;-71
2022/05/08 09:42:51;;;;;;;6.30;2.47;;;;;;;;;;5028924;28;20205;-72
2022/05/08 09:45:20;;;;;;;8.13;2.33;;;;;;;;;;5029851;28;20618;-72
2022/05/08 09:47:55;;;;;;;8.65;2.95;;;;;;;;;;5031101;28;20219;-72
2022/05/08 09:50:26;;;;;;;8.38;2.55;;;;;;;;;;5035715;28;20211;-72
2022/05/08 09:53:13;;;;;;;5.53;2.55;;;;;;;;;;5038577;28;20207;-73
2022/05/08 09:55:59;;;;;;;9.00;2.80;;;;;;;;;;5037974;28;20238;-74
2022/05/08 09:58:28;;;;;;;8.10;3.08;;;;;;;;;;5038519;28;20231;-72
2022/05/08 10:00:56;;;;;;;8.57;3.05;;;;;;;;;;5036756;28;20273;-72
2022/05/08 10:03:25;;;;;;;9.80;3.15;;;;;;;;;;5035118;28;20218;-71
2022/05/08 10:05:57;;;;;;;5.53;2.50;;;;;;;;;;5033509;28;20544;-72
2022/05/08 10:08:26;;;;;;;6.15;2.90;;;;;;;;;;5035981;28;20219;-72
2022/05/08 10:14:00;;;;;;;7.28;2.88;;;;;;;;;;5035433;28;20664;-72
2022/05/08 10:16:46;;;;;;;9.52;3.30;;;;;;;;;;5031353;28;20218;-71
2022/05/08 10:19:33;;;;;;;6.90;2.78;;;;;;;;;;5035930;28;20196;-71
2022/05/08 10:22:06;;;;;;;8.38;3.08;;;;;;;;;;5029611;28;20253;-73
2022/05/08 10:24:35;;;;;;;6.90;2.45;;;;;;;;;;5025206;28;20218;-72
2022/05/08 10:27:11;;;;;;;7.90;2.92;;;;;;;;;;5034659;28;20219;-72
2022/05/08 10:29:40;;;;;;;7.13;2.83;;;;;;;;;;5035571;28;20230;-72
2022/05/08 10:32:10;;;;;;;7.05;2.35;;;;;;;;;;5033267;28;20277;-72
2022/05/08 10:34:40;;;;;;;7.75;2.70;;;;;;;;;;5034382;28;20294;-72
2022/05/08 10:37:23;;;;;;;7.07;2.60;;;;;;;;;;5034657;28;20227;-73
2022/05/08 10:39:54;;;;;;;6.70;2.83;;;;;;;;;;5031613;28;20208;-72
2022/05/08 10:42:43;;;;;;;6.15;2.58;;;;;;;;;;5034084;28;20266;-73
2022/05/08 10:45:36;;;;;;;5.45;2.40;;;;;;;;;;5032761;28;20200;-71
2022/05/08 10:48:09;;;;;;;9.45;2.80;;;;;;;;;;5006721;28;20222;-72
2022/05/08 10:50:38;;;;;;;5.97;2.90;;;;;;;;;;5035403;28;20203;-73
2022/05/08 10:53:21;;;;;;;6.38;2.60;;;;;;;;;;5032611;28;20299;-73
2022/05/08 10:56:00;;;;;;;7.45;2.60;;;;;;;;;;5034983;28;20212;-71
2022/05/08 10:58:29;;;;;;;6.68;2.42;;;;;;;;;;5031802;28;20232;-70
2022/05/08 11:00:58;;;;;;;8.57;2.60;;;;;;;;;;5034662;28;20275;-72
2022/05/08 11:03:28;;;;;;;6.38;2.80;;;;;;;;;;5035974;28;20917;-74
2022/05/08 11:05:57;;;;;;;7.10;3.00;;;;;;;;;;5035056;28;20199;-72
2022/05/08 11:08:28;;;;;;;7.35;3.10;;;;;;;;;;5031735;28;20710;-72
2022/05/08 11:10:59;;;;;;;6.35;2.60;;;;;;;;;;5034572;28;20207;-71
2022/05/08 11:13:38;;;;;;;6.63;3.00;;;;;;;;;;5033537;28;20540;-72
2022/05/08 11:16:07;;;;;;;8.35;2.90;;;;;;;;;;5030854;28;20238;-72
2022/05/08 11:18:42;;;;;;;9.40;3.47;;;;;;;;;;5036319;28;20216;-72
2022/05/08 11:21:10;;;;;;;7.53;3.10;;;;;;;;;;5035333;28;20203;-72
2022/05/08 11:23:42;;;;;;;8.85;2.78;;;;;;;;;;5026992;28;20217;-71
2022/05/08 11:26:13;;;;;;;5.43;2.80;;;;;;;;;;5030584;28;20739;-72
2022/05/08 11:28:48;;;;;;;11.52;3.03;;;;;;;;;;5029839;28;20238;-72
2022/05/08 11:31:18;;;;;;;6.43;2.92;;;;;;;;;;5034565;28;20295;-72
2022/05/08 11:36:34;;;;;;;6.78;2.60;;;;;;;;;;5030164;28;20566;-72
2022/05/08 11:39:04;;;;;;;5.82;2.92;;;;;;;;;;5032132;28;20707;-73
2022/05/08 11:41:37;;;;;;;7.20;3.00;;;;;;;;;;5034211;28;20593;-72
2022/05/08 11:44:17;;;;;;;6.15;2.50;;;;;;;;;;5033322;28;20214;-72
2022/05/08 11:46:46;;;;;;;7.13;3.05;;;;;;;;;;5033401;28;20204;-73
2022/05/08 11:49:16;;;;;;;8.05;2.97;;;;;;;;;;5031929;28;20311;-72
2022/05/08 11:51:46;;;;;;;7.90;2.97;;;;;;;;;;5032054;28;20670;-72
2022/05/08 11:54:40;;;;;;;4.18;2.35;;;;;;;;;;5029520;28;20630;-72
2022/05/08 11:57:14;;;;;;;6.15;2.58;;;;;;;;;;5026507;28;20270;-72
2022/05/08 11:59:43;;;;;;;4.93;2.80;;;;;;;;;;5031532;28;20687;-72
2022/05/08 12:02:12;;;;;;;8.10;2.88;;;;;;;;;;5031767;28;20213;-72
2022/05/08 12:04:41;;;;;;;7.38;3.00;;;;;;;;;;5032391;28;20597;-73
2022/05/08 12:07:11;;;;;;;5.70;2.47;;;;;;;;;;5033055;28;20253;-73
2022/05/08 12:09:41;;;;;;;7.80;2.78;;;;;;;;;;5031363;28;20223;-72
2022/05/08 12:12:27;;;;;;;4.68;2.50;;;;;;;;;;5029336;28;20659;-73
2022/05/08 12:14:59;;;;;;;6.85;3.10;;;;;;;;;;5030519;28;20565;-72
2022/05/08 12:17:29;;;;;;;5.75;3.00;;;;;;;;;;5031159;28;20215;-72
2022/05/08 12:19:58;;;;;;;6.10;2.90;;;;;;;;;;5029785;28;20246;-72
2022/05/08 12:22:28;;;;;;;5.28;2.53;;;;;;;;;;5030766;28;20196;-71
2022/05/08 12:24:58;;;;;;;6.85;2.60;;;;;;;;;;5029373;28;20211;-72
2022/05/08 12:27:30;;;;;;;6.90;2.38;;;;;;;;;;5030159;28;20710;-71
2022/05/08 12:29:59;;;;;;;5.32;2.20;;;;;;;;;;5032893;28;20325;-72
2022/05/08 12:32:28;;;;;;;6.18;2.30;;;;;;;;;;5028560;28;20195;-72
2022/05/08 12:34:58;;;;;;;6.10;2.70;;;;;;;;;;5028662;28;20708;-72
2022/05/08 12:37:27;;;;;;;11.63;3.20;;;;;;;;;;5033418;28;20216;-72
2022/05/08 12:39:56;;;;;;;5.72;2.95;;;;;;;;;;5026277;28;20239;-73
2022/05/08 12:42:24;;;;;;;5.68;2.90;;;;;;;;;;5031766;28;20227;-73
2022/05/08 12:44:54;;;;;;;5.55;2.70;;;;;;;;;;5031995;28;20204;-72
2022/05/08 12:47:22;;;;;;;6.93;2.47;;;;;;;;;;5035391;28;20220;-71
2022/05/08 12:49:53;;;;;;;5.07;2.65;;;;;;;;;;5032489;28;20227;-73
2022/05/08 12:52:21;;;;;;;5.03;2.90;;;;;;;;;;5032966;28;20690;-72
2022/05/08 12:54:49;;;;;;;7.05;2.47;;;;;;;;;;5029930;28;20235;-72
2022/05/08 13:00:14;;;;;;;6.38;2.80;;;;;;;;;;5033111;28;20195;-72
2022/05/08 13:02:42;;;;;;;10.05;2.90;;;;;;;;;;5031703;28;20204;-74
2022/05/08 13:05:11;;;;;;;7.03;2.67;;;;;;;;;;5028014;28;20199;-72
2022/05/08 13:07:40;;;;;;;8.38;2.75;;;;;;;;;;5030724;28;20764;-73
2022/05/08 13:10:09;;;;;;;6.80;2.78;;;;;;;;;;5032540;28;20746;-72
2022/05/08 13:12:41;;;;;;;6.88;2.53;;;;;;;;;;5028603;28;20599;-72
2022/05/08 13:15:10;;;;;;;3.70;2.38;;;;;;;;;;5027798;28;20647;-72
2022/05/08 13:17:40;;;;;;;5.72;2.55;;;;;;;;;;5032043;28;20230;-72
2022/05/08 13:20:09;;;;;;;7.78;2.38;;;;;;;;;;5031084;28;20212;-73
2022/05/08 13:22:41;;;;;;;7.60;2.50;;;;;;;;;;5022414;28;20200;-72
2022/05/08 13:25:10;;;;;;;6.75;2.50;;;;;;;;;;5031375;28;20226;-72
2022/05/08 13:27:39;;;;;;;4.55;2.25;;;;;;;;;;5031802;28;20223;-72
2022/05/08 13:30:14;;;;;;;6.28;2.38;;;;;;;;;;5028482;28;20221;-73
2022/05/08 13:32:44;;;;;;;6.53;2.35;;;;;;;;;;5031473;28;20208;-72
2022/05/08 13:35:12;;;;;;;4.93;2.28;;;;;;;;;;5031080;28;20255;-72
2022/05/08 13:37:41;;;;;;;5.75;2.20;;;;;;;;;;5031961;28;20227;-72
2022/05/08 13:40:10;;;;;;;7.07;2.20;;;;;;;;;;5032235;28;20265;-71
2022/05/08 13:42:38;;;;;;;6.18;2.38;;;;;;;;;;5032135;28;20238;-73
2022/05/08 13:45:07;;;;;;;7.18;2.70;;;;;;;;;;5031433;28;20208;-72
2022/05/08 13:47:36;;;;;;;4.90;2.47;;;;;;;;;;5032293;28;20220;-72
2022/05/08 13:50:07;;;;;;;5.72;2.22;;;;;;;;;;5031243;28;20228;-72
2022/05/08 13:52:35;;;;;;;6.68;2.40;;;;;;;;;;5033303;28;20600;-72
2022/05/08 13:55:05;;;;;;;3.80;2.15;;;;;;;;;;5030598;28;20286;-73
2022/05/08 13:57:36;;;;;;;6.30;2.40;;;;;;;;;;5027529;28;20737;-72
2022/05/08 14:00:06;;;;;;;5.82;2.40;;;;;;;;;;5025525;28;20216;-72
2022/05/08 14:02:35;;;;;;;6.88;2.38;;;;;;;;;;5026521;28;20235;-72
2022/05/08 14:05:06;;;;;;;4.57;2.33;;;;;;;;;;5018174;28;20212;-72
2022/05/08 14:07:36;;;;;;;4.55;2.38;;;;;;;;;;5024585;28;20318;-72
2022/05/08 14:10:07;;;;;;;6.50;2.35;;;;;;;;;;5024339;28;20224;-72
2022/05/08 14:12:37;;;;;;;5.18;2.40;;;;;;;;;;5028760;28;20210;-73
2022/05/08 14:15:06;;;;;;;6.22;2.25;;;;;;;;;;5028172;28;20211;-72
2022/05/08 14:17:34;;;;;;;5.72;2.20;;;;;;;;;;5027223;28;20306;-73
2022/05/08 14:20:03;;;;;;;5.63;2.60;;;;;;;;;;5025707;28;20560;-71
2022/05/08 14:22:32;;;;;;;5.07;2.53;;;;;;;;;;5026374;28;20252;-72
2022/05/08 14:27:45;;;;;;;6.50;2.38;;;;;;;;;;5026501;28;20228;-72
2022/05/08 14:30:14;;;;;;;6.35;2.47;;;;;;;;;;5015169;28;20221;-74
2022/05/08 14:38:23;;;;;;;4.80;2.30;;;;;;;;;;5015584;28;20228;-72
2022/05/08 14:40:59;;;;;;;4.35;2.00;;;;;;;;;;5039509;28;20207;-73
2022/05/08 14:43:28;;;;;;;4.70;1.90;;;;;;;;;;5045373;28;20233;-72
2022/05/08 14:45:58;;;;;;;4.05;2.10;;;;;;;;;;5031886;28;21096;-73
2022/05/08 14:48:28;;;;;;;5.07;2.20;;;;;;;;;;5030455;28;20703;-73
2022/05/08 14:50:57;;;;;;;4.13;2.15;;;;;;;;;;5031235;28;20281;-73
2022/05/08 14:53:26;;;;;;;6.05;2.65;;;;;;;;;;5037944;28;20264;-72
2022/05/08 14:55:55;;;;;;;7.70;2.33;;;;;;;;;;5032179;28;20211;-73
2022/05/08 14:58:24;;;;;;;8.93;2.50;;;;;;;;;;5031209;28;20216;-72
2022/05/08 15:00:53;;;;;;;7.63;2.50;;;;;;;;;;5031096;28;20277;-72
2022/05/08 15:03:25;;;;;;;8.23;2.33;;;;;;;;;;5022611;28;20626;-72
2022/05/08 15:05:53;;;;;;;6.75;2.55;;;;;;;;;;5023722;28;20546;-72
2022/05/08 15:08:21;;;;;;;6.68;2.42;;;;;;;;;;5032489;28;20227;-72
2022/05/08 15:10:57;;;;;;;7.57;2.38;;;;;;;;;;5032504;28;20219;-72
2022/05/08 15:13:27;;;;;;;7.57;2.63;;;;;;;;;;5029210;28;20588;-72
2022/05/08 15:15:55;;;;;;;6.65;2.10;;;;;;;;;;5032136;28;20663;-72
2022/05/08 15:21:18;;;;;;;6.78;2.30;;;;;;;;;;5028078;28;20671;-73
2022/05/08 15:23:51;;;;;;;6.30;2.47;;;;;;;;;;5031247;28;20200;-72
2022/05/08 15:26:20;;;;;;;4.80;2.30;;;;;;;;;;5027206;28;20208;-73
2022/05/08 15:28:52;;;;;;;5.40;2.20;;;;;;;;;;5031562;28;20224;-72
2022/05/08 15:31:25;;;;;;;9.90;2.50;;;;;;;;;;5013747;28;20273;-73
2022/05/08 15:34:00;;;;;;;6.68;2.25;;;;;;;;;;5029682;28;20219;-72
2022/05/08 15:36:34;;;;;;;5.65;2.47;;;;;;;;;;5013704;28;20203;-72
2022/05/08 15:39:03;;;;;;;6.40;2.53;;;;;;;;;;5016884;28;20236;-73